Weather at KRQE Heliport [CLOSED]

Public forecast

Using degrees Fahrenheit for public forecast. Weather courtesy of forecast.io.

Closest aviation weather report (METAR) to KRQE Heliport

Closest report is Albuquerque International Sunport, 2.6 nm (4.8 km) SE.

2024/06/22 05:52 (retrieved 15 minutes ago)

KABQ 220552Z 01009KT 10SM VCTS -RA SCT055 BKN080CB OVC120 22/16 A3027 RMK AO2 RAB0455 SLP168 OCNL LTGCG VC N TS VC N MOV NE P0010 60010 T02170161 10272 20206 53017

Closest aviation forecast (TAF) to KRQE Heliport

Closest forecast is Albuquerque International Sunport, 2.6 nm (4.8 km) SE.

2024/06/22 06:48 (retrieved 0 seconds ago)

TAF KABQ 220546Z 2206/2306 17008KT 5SM -SHRA BKN050 TEMPO 2206/2209 VRB15G30KT 4SM -TSRA BKN040CB FM221200 32006KT P6SM -SHRA BKN050 FM221600 34006KT P6SM BKN100 FM230000 24006KT P6SM -SHRA BKN100